Time;durP1;ratioP1;P1;durP2;ratioP2;P2;SDS_P1;SDS_P2;PMS_P1;PMS_P2;Temp;Humidity;BMP_temperature;BMP_pressure;BME280_temperature;BME280_humidity;BME280_pressure;Samples;Min_cycle;Max_cycle;Signal;HPM_P1;HPM_P2
2022/06/29 00:01:09;;;;;;;5.17;4.77;;;27.10;66.10;;;;;;5007506;28;20587;-80
2022/06/29 00:03:37;;;;;;;4.23;3.93;;;27.10;66.10;;;;;;5013389;28;20536;-81
2022/06/29 00:06:05;;;;;;;4.50;4.20;;;27.10;66.10;;;;;;5012744;28;20452;-79
2022/06/29 00:08:34;;;;;;;4.30;4.00;;;27.10;66.10;;;;;;4999573;28;20467;-79
2022/06/29 00:11:05;;;;;;;4.10;3.80;;;27.10;66.10;;;;;;5017901;28;20502;-80
2022/06/29 00:13:33;;;;;;;4.63;4.30;;;27.10;66.10;;;;;;5005154;28;20594;-83
2022/06/29 00:16:01;;;;;;;5.30;4.87;;;27.10;66.10;;;;;;5036629;28;20504;-78
2022/06/29 00:18:33;;;;;;;4.77;4.37;;;27.10;66.10;;;;;;5038407;28;20434;-80
2022/06/29 00:21:01;;;;;;;4.57;4.20;;;27.10;66.10;;;;;;5037237;28;20459;-80
2022/06/29 00:23:32;;;;;;;4.50;4.20;;;27.10;66.20;;;;;;5036867;28;20455;-79
2022/06/29 00:26:00;;;;;;;4.40;4.10;;;27.10;66.10;;;;;;5038658;28;20433;-79
2022/06/29 00:28:29;;;;;;;5.53;4.53;;;27.10;66.10;;;;;;5020237;28;20464;-80
2022/06/29 00:30:57;;;;;;;4.30;4.00;;;27.10;66.10;;;;;;5014004;28;20430;-81
2022/06/29 00:33:26;;;;;;;4.80;4.50;;;27.10;66.10;;;;;;5013476;28;20508;-78
2022/06/29 00:35:55;;;;;;;5.23;4.73;;;27.10;66.10;;;;;;5002173;28;20898;-78
2022/06/29 00:38:23;;;;;;;4.50;4.10;;;27.10;66.00;;;;;;5012975;28;20441;-78
2022/06/29 00:40:52;;;;;;;4.73;4.30;;;27.10;66.10;;;;;;5010668;28;20506;-79
2022/06/29 00:43:20;;;;;;;4.80;4.50;;;27.10;66.00;;;;;;4995191;28;20548;-79
2022/06/29 00:45:48;;;;;;;4.20;3.90;;;27.10;66.00;;;;;;5013365;28;20468;-79
2022/06/29 00:48:16;;;;;;;4.30;3.97;;;27.10;66.00;;;;;;5012205;28;20486;-78
2022/06/29 00:50:46;;;;;;;5.27;4.77;;;27.10;66.10;;;;;;5012961;28;20488;-78
2022/06/29 00:53:18;;;;;;;5.17;4.80;;;27.10;66.00;;;;;;5005610;28;20559;-78
2022/06/29 00:55:49;;;;;;;5.03;4.63;;;27.10;66.00;;;;;;4996276;28;20958;-79
2022/06/29 00:58:22;;;;;;;4.90;4.50;;;27.10;66.00;;;;;;5010080;28;20491;-81
2022/06/29 01:00:50;;;;;;;4.60;4.30;;;27.00;66.10;;;;;;5013463;28;20468;-81
2022/06/29 01:03:18;;;;;;;4.67;4.37;;;27.10;66.10;;;;;;5012471;28;20914;-81
2022/06/29 01:05:47;;;;;;;4.60;4.20;;;27.10;66.00;;;;;;5012548;28;20453;-78
2022/06/29 01:08:16;;;;;;;4.13;3.77;;;27.10;66.00;;;;;;5012853;28;20428;-78
2022/06/29 01:10:45;;;;;;;4.37;4.07;;;27.10;66.00;;;;;;5013083;28;20464;-78
2022/06/29 01:13:13;;;;;;;5.00;4.60;;;27.10;66.00;;;;;;5012720;28;20444;-78
2022/06/29 01:15:41;;;;;;;4.23;3.93;;;27.10;65.90;;;;;;5012368;28;21007;-78
2022/06/29 01:18:10;;;;;;;5.10;4.70;;;27.10;66.00;;;;;;5013507;28;20832;-81
2022/06/29 01:20:38;;;;;;;4.37;4.07;;;27.10;66.10;;;;;;5025746;28;20451;-79
2022/06/29 01:23:08;;;;;;;3.80;3.50;;;27.00;66.00;;;;;;5032662;28;20515;-79
2022/06/29 01:25:36;;;;;;;5.33;4.83;;;27.00;66.00;;;;;;5030823;28;20853;-79
2022/06/29 01:28:05;;;;;;;4.70;4.30;;;27.00;66.00;;;;;;5016573;28;20464;-79
2022/06/29 01:30:33;;;;;;;4.03;3.73;;;27.00;65.90;;;;;;5011542;28;20487;-78
2022/06/29 01:33:01;;;;;;;4.33;4.03;;;27.00;66.00;;;;;;5011031;28;20445;-79
2022/06/29 01:35:29;;;;;;;5.10;4.70;;;27.00;65.90;;;;;;5008750;28;20526;-80
2022/06/29 01:37:59;;;;;;;4.60;4.20;;;27.00;66.00;;;;;;5011271;28;20476;-83
2022/06/29 01:40:29;;;;;;;4.73;4.33;;;27.00;66.00;;;;;;5011962;28;21224;-78
2022/06/29 01:42:57;;;;;;;4.37;4.07;;;27.00;66.00;;;;;;5012428;28;20453;-78
2022/06/29 01:45:25;;;;;;;5.10;4.80;;;27.00;66.00;;;;;;5011860;28;20511;-78
2022/06/29 01:47:53;;;;;;;9.93;4.63;;;27.00;65.90;;;;;;5013963;28;20492;-79
2022/06/29 01:50:22;;;;;;;3.83;3.53;;;27.00;65.90;;;;;;5032022;28;20475;-81
2022/06/29 01:52:50;;;;;;;4.10;3.80;;;27.00;66.00;;;;;;5011717;28;20510;-79
2022/06/29 01:55:18;;;;;;;4.63;4.13;;;27.00;66.00;;;;;;5011580;28;20577;-79
2022/06/29 01:57:48;;;;;;;4.77;4.47;;;27.00;66.00;;;;;;5011766;28;20847;-79
2022/06/29 02:00:18;;;;;;;3.83;3.60;;;27.00;66.00;;;;;;5012249;28;20468;-79
2022/06/29 02:02:46;;;;;;;3.77;3.47;;;27.00;66.00;;;;;;5011913;28;20452;-79
2022/06/29 02:05:14;;;;;;;4.40;4.10;;;27.00;66.00;;;;;;5009836;28;20475;-81
2022/06/29 02:07:42;;;;;;;4.40;4.10;;;27.00;66.00;;;;;;4993988;28;20477;-79
2022/06/29 02:10:11;;;;;;;4.83;4.53;;;27.00;66.00;;;;;;5011216;28;20489;-79
2022/06/29 02:12:39;;;;;;;4.90;4.53;;;27.00;66.00;;;;;;5011118;28;20806;-83
2022/06/29 02:15:09;;;;;;;3.70;3.40;;;27.00;65.90;;;;;;5002278;28;20482;-79
2022/06/29 02:17:37;;;;;;;4.20;3.80;;;27.00;66.00;;;;;;4992614;28;20555;-80
2022/06/29 02:20:07;;;;;;;4.23;3.93;;;27.00;66.00;;;;;;5005083;28;20519;-79
2022/06/29 02:22:36;;;;;;;4.57;4.17;;;26.90;66.00;;;;;;5012342;28;20453;-79
2022/06/29 02:25:04;;;;;;;4.50;4.20;;;27.00;66.00;;;;;;5011392;28;20897;-79
2022/06/29 02:27:32;;;;;;;4.80;4.50;;;27.00;66.00;;;;;;5011725;28;20499;-78
2022/06/29 02:30:01;;;;;;;3.93;3.63;;;26.90;66.00;;;;;;5011502;28;20456;-79
2022/06/29 02:35:16;;;;;;;5.10;4.73;;;26.90;65.90;;;;;;5011269;28;20559;-79
2022/06/29 02:37:44;;;;;;;4.30;3.97;;;26.90;66.00;;;;;;5006796;28;20460;-78
2022/06/29 02:40:12;;;;;;;4.40;4.10;;;26.90;66.00;;;;;;5011273;28;20479;-79
2022/06/29 02:42:41;;;;;;;3.83;3.53;;;26.90;66.00;;;;;;5010758;28;20468;-80
2022/06/29 02:45:29;;;;;;;4.37;3.97;;;26.90;66.00;;;;;;5008189;28;20478;-80
2022/06/29 02:47:58;;;;;;;4.70;4.40;;;26.90;65.90;;;;;;5000432;28;20549;-79
2022/06/29 02:50:26;;;;;;;4.60;4.30;;;26.90;65.90;;;;;;5006428;28;20552;-79
2022/06/29 02:52:55;;;;;;;4.30;4.00;;;26.90;65.90;;;;;;5011727;28;20472;-79
2022/06/29 02:55:23;;;;;;;4.57;4.17;;;26.90;65.90;;;;;;5010942;28;20484;-79
2022/06/29 02:57:51;;;;;;;4.23;3.93;;;26.90;65.90;;;;;;5011850;28;20499;-80
2022/06/29 03:00:20;;;;;;;4.37;4.03;;;26.90;65.90;;;;;;5011424;28;20501;-78
2022/06/29 03:02:48;;;;;;;4.60;4.20;;;26.90;65.90;;;;;;5010025;28;20468;-80
2022/06/29 03:05:17;;;;;;;4.87;4.47;;;26.90;65.90;;;;;;4993832;28;20461;-80
2022/06/29 03:07:46;;;;;;;3.90;3.60;;;26.90;65.90;;;;;;4994843;28;20511;-79
2022/06/29 03:10:14;;;;;;;5.00;4.60;;;26.80;65.90;;;;;;5009213;28;20482;-79
2022/06/29 03:12:42;;;;;;;4.77;4.27;;;26.80;65.90;;;;;;5014756;28;20475;-79
2022/06/29 03:15:11;;;;;;;6.97;4.63;;;26.80;65.90;;;;;;5018681;28;20575;-79
2022/06/29 03:17:39;;;;;;;4.80;4.40;;;26.80;65.90;;;;;;5014398;28;20531;-79
2022/06/29 03:20:08;;;;;;;5.20;4.80;;;26.80;65.90;;;;;;5019224;28;20576;-79
2022/06/29 03:22:38;;;;;;;5.00;4.60;;;26.80;65.90;;;;;;5011796;28;20460;-79
2022/06/29 03:25:07;;;;;;;4.40;4.00;;;26.80;65.90;;;;;;5004788;28;20514;-78
2022/06/29 03:27:35;;;;;;;5.50;4.50;;;26.80;65.90;;;;;;5006002;28;20547;-78
2022/06/29 03:30:05;;;;;;;5.03;4.40;;;26.80;65.90;;;;;;5006569;28;20518;-79
2022/06/29 03:32:33;;;;;;;4.90;4.50;;;26.80;65.90;;;;;;5014565;28;20460;-79
2022/06/29 03:35:01;;;;;;;4.57;4.27;;;26.80;65.90;;;;;;5008843;28;20456;-80
2022/06/29 03:37:29;;;;;;;5.20;4.80;;;26.80;65.90;;;;;;5003147;28;20558;-84
2022/06/29 03:39:59;;;;;;;4.20;3.90;;;26.80;65.90;;;;;;5012736;28;20949;-80
2022/06/29 03:42:27;;;;;;;4.97;4.57;;;26.80;65.90;;;;;;5012471;28;20518;-79
2022/06/29 03:44:56;;;;;;;4.90;4.50;;;26.80;65.90;;;;;;5014490;28;20456;-78
2022/06/29 03:47:25;;;;;;;4.20;3.90;;;26.80;65.90;;;;;;5014703;28;20434;-79
2022/06/29 03:49:53;;;;;;;4.43;4.13;;;26.80;65.90;;;;;;5014108;28;20877;-81
2022/06/29 03:52:22;;;;;;;5.00;4.60;;;26.80;65.90;;;;;;5014450;28;20444;-78
2022/06/29 03:54:50;;;;;;;4.70;4.30;;;26.80;65.90;;;;;;5014332;28;20445;-79
2022/06/29 03:57:20;;;;;;;4.80;4.47;;;26.80;65.90;;;;;;5013717;28;20519;-79
2022/06/29 03:59:48;;;;;;;4.30;4.00;;;26.80;65.90;;;;;;5014323;28;20525;-79
2022/06/29 04:02:16;;;;;;;4.70;4.30;;;26.80;65.90;;;;;;4998366;28;20801;-78
2022/06/29 04:04:44;;;;;;;4.10;3.80;;;26.80;65.90;;;;;;5008032;28;20466;-78
2022/06/29 04:07:13;;;;;;;4.50;4.10;;;26.80;65.90;;;;;;5006946;28;20455;-81
2022/06/29 04:09:41;;;;;;;4.43;4.10;;;26.80;65.90;;;;;;5012001;28;20488;-79
2022/06/29 04:12:10;;;;;;;4.40;4.10;;;26.80;65.90;;;;;;5008322;28;20471;-80
2022/06/29 04:14:39;;;;;;;4.50;4.10;;;26.80;65.90;;;;;;5004558;28;20500;-79
2022/06/29 04:17:07;;;;;;;5.37;4.87;;;26.80;65.70;;;;;;5012212;28;20558;-78
2022/06/29 04:19:36;;;;;;;4.23;3.93;;;26.80;65.90;;;;;;5013464;28;20532;-79
2022/06/29 04:22:04;;;;;;;4.30;4.00;;;26.80;65.90;;;;;;5010701;28;20558;-78
2022/06/29 04:24:32;;;;;;;4.20;3.90;;;26.80;65.70;;;;;;5013333;28;20571;-78
2022/06/29 04:27:01;;;;;;;4.47;4.07;;;26.80;65.70;;;;;;5010116;28;20879;-78
2022/06/29 04:29:29;;;;;;;4.30;4.00;;;26.80;65.70;;;;;;5032001;28;20451;-80
2022/06/29 04:31:58;;;;;;;4.40;4.03;;;26.80;65.70;;;;;;5009561;28;20484;-79
2022/06/29 04:34:27;;;;;;;4.10;3.80;;;26.80;65.70;;;;;;5006208;28;20444;-78
2022/06/29 04:36:55;;;;;;;4.33;4.00;;;26.80;65.70;;;;;;5006707;28;20606;-79
2022/06/29 04:39:23;;;;;;;4.30;4.00;;;26.80;65.70;;;;;;5000160;28;20485;-79
2022/06/29 04:41:53;;;;;;;4.37;4.07;;;26.80;65.70;;;;;;5006581;28;20573;-78
2022/06/29 04:44:21;;;;;;;4.30;4.00;;;26.80;65.70;;;;;;5009342;28;20458;-78
2022/06/29 04:46:50;;;;;;;4.10;3.80;;;26.80;65.70;;;;;;5004216;28;20563;-80
2022/06/29 04:49:19;;;;;;;4.30;4.00;;;26.80;65.70;;;;;;5004685;28;20501;-78
2022/06/29 04:51:48;;;;;;;5.07;4.70;;;26.80;65.70;;;;;;5006932;28;20952;-80
2022/06/29 04:54:16;;;;;;;4.90;4.50;;;26.80;65.70;;;;;;5007173;28;20525;-79
2022/06/29 04:56:44;;;;;;;5.23;4.63;;;26.80;65.70;;;;;;5000547;28;20564;-78
2022/06/29 04:59:13;;;;;;;6.50;6.00;;;26.80;65.70;;;;;;5011035;28;20441;-80
2022/06/29 05:01:43;;;;;;;5.10;4.70;;;26.80;65.90;;;;;;5004442;28;21028;-79
2022/06/29 05:04:11;;;;;;;5.47;5.00;;;26.80;65.90;;;;;;5000461;28;20550;-80
2022/06/29 05:06:41;;;;;;;4.27;3.97;;;26.80;65.70;;;;;;5010229;28;20460;-79
2022/06/29 05:09:12;;;;;;;4.00;3.70;;;26.80;65.70;;;;;;5008488;28;20530;-78
2022/06/29 05:11:40;;;;;;;5.33;4.83;;;26.80;65.70;;;;;;5007445;28;20607;-78
2022/06/29 05:14:10;;;;;;;4.97;3.73;;;26.80;65.70;;;;;;5012083;28;20463;-79
2022/06/29 05:16:38;;;;;;;5.13;4.63;;;26.80;65.70;;;;;;5007652;28;20482;-83
2022/06/29 05:19:07;;;;;;;6.00;4.90;;;26.80;65.70;;;;;;4999797;28;20470;-78
2022/06/29 05:21:35;;;;;;;5.43;4.90;;;26.80;65.60;;;;;;5010697;28;20524;-82
2022/06/29 05:24:05;;;;;;;5.67;5.17;;;26.80;65.70;;;;;;5003667;28;20483;-81
2022/06/29 05:26:39;;;;;;;6.13;4.23;;;26.80;65.70;;;;;;5010347;28;20515;-78
2022/06/29 05:29:08;;;;;;;4.60;4.20;;;26.80;65.70;;;;;;4995928;28;20464;-80
2022/06/29 05:31:36;;;;;;;5.10;4.70;;;26.80;65.70;;;;;;4999516;28;20460;-78
2022/06/29 05:34:04;;;;;;;4.90;4.50;;;26.80;65.70;;;;;;5004316;28;20468;-78
2022/06/29 05:36:32;;;;;;;5.20;4.70;;;26.80;65.70;;;;;;4996402;28;20589;-79
2022/06/29 05:39:00;;;;;;;5.67;5.20;;;26.80;65.70;;;;;;5001582;28;20518;-79
2022/06/29 05:41:30;;;;;;;5.70;4.60;;;26.80;65.70;;;;;;5003872;28;20506;-83
2022/06/29 05:43:58;;;;;;;5.33;4.80;;;26.80;65.70;;;;;;5010778;28;20449;-78
2022/06/29 05:46:26;;;;;;;4.93;4.47;;;26.90;65.70;;;;;;5003512;28;20591;-79
2022/06/29 05:48:55;;;;;;;5.97;4.70;;;26.80;65.70;;;;;;5012237;28;20499;-78
2022/06/29 05:51:23;;;;;;;5.97;4.63;;;26.90;65.70;;;;;;5002128;28;20448;-80
2022/06/29 05:53:52;;;;;;;5.17;4.67;;;26.80;65.70;;;;;;5011222;28;20576;-81
2022/06/29 05:56:22;;;;;;;9.20;6.40;;;26.90;65.70;;;;;;5008003;28;20787;-79
2022/06/29 05:58:52;;;;;;;6.03;4.57;;;26.90;66.50;;;;;;4993701;28;20499;-78
2022/06/29 06:01:20;;;;;;;6.50;4.80;;;26.90;66.90;;;;;;5018738;28;20455;-79
2022/06/29 06:03:48;;;;;;;8.10;5.30;;;26.90;66.50;;;;;;5012653;28;20472;-78
2022/06/29 06:06:16;;;;;;;8.20;5.13;;;26.90;65.90;;;;;;5004723;28;20468;-79
2022/06/29 06:08:45;;;;;;;5.67;4.67;;;26.90;66.10;;;;;;4992070;28;20458;-78
2022/06/29 06:11:13;;;;;;;5.23;4.67;;;26.90;66.00;;;;;;5005725;28;20457;-78
2022/06/29 06:13:41;;;;;;;6.90;4.10;;;26.90;66.10;;;;;;5010874;28;20507;-77
2022/06/29 06:16:11;;;;;;;7.60;5.90;;;26.90;66.10;;;;;;5008432;28;20538;-77
2022/06/29 06:18:59;;;;;;;5.17;4.67;;;26.90;66.10;;;;;;5004857;28;20462;-78
2022/06/29 06:21:27;;;;;;;5.20;4.70;;;26.90;66.00;;;;;;5002801;28;20518;-78
2022/06/29 06:23:56;;;;;;;5.60;4.90;;;26.90;66.00;;;;;;5005055;28;20460;-77
2022/06/29 06:26:24;;;;;;;5.00;4.60;;;26.90;66.00;;;;;;5001666;28;20518;-78
2022/06/29 06:28:52;;;;;;;6.97;5.40;;;26.90;66.10;;;;;;5010710;28;20451;-77
2022/06/29 06:31:25;;;;;;;6.10;4.90;;;26.90;66.10;;;;;;5011228;28;20856;-77
2022/06/29 06:33:54;;;;;;;6.43;4.73;;;27.00;65.90;;;;;;4999700;28;20804;-77
2022/06/29 06:36:22;;;;;;;7.73;6.10;;;27.00;66.00;;;;;;5002342;28;20566;-77
2022/06/29 06:38:50;;;;;;;5.50;5.00;;;27.00;66.10;;;;;;5009442;28;20480;-76
2022/06/29 06:41:25;;;;;;;5.50;5.00;;;27.00;65.80;;;;;;5010436;28;20461;-77
2022/06/29 06:43:55;;;;;;;8.30;5.03;;;27.00;66.00;;;;;;5011715;28;20506;-77
2022/06/29 06:46:25;;;;;;;5.70;4.67;;;27.00;65.80;;;;;;5005476;28;20465;-79
2022/06/29 06:48:54;;;;;;;6.80;4.97;;;27.10;65.80;;;;;;5002421;28;20950;-78
2022/06/29 06:51:23;;;;;;;5.73;4.60;;;27.10;66.10;;;;;;5011654;28;20494;-79
2022/06/29 06:53:52;;;;;;;4.70;4.40;;;27.10;66.20;;;;;;5013122;28;20458;-78
2022/06/29 06:56:20;;;;;;;7.90;5.40;;;27.10;66.20;;;;;;5013485;28;20459;-78
2022/06/29 06:58:49;;;;;;;5.93;5.37;;;27.10;66.30;;;;;;5010080;28;20639;-76
2022/06/29 07:01:22;;;;;;;5.53;5.00;;;27.10;66.30;;;;;;5013441;28;21004;-76
2022/06/29 07:03:52;;;;;;;6.07;5.40;;;27.20;66.20;;;;;;5009412;28;20456;-77
2022/06/29 07:06:21;;;;;;;7.43;5.27;;;27.20;66.20;;;;;;5018013;28;20477;-76
2022/06/29 07:08:50;;;;;;;5.47;4.97;;;27.20;66.30;;;;;;5012866;28;20549;-77
2022/06/29 07:11:18;;;;;;;6.00;5.43;;;27.20;66.40;;;;;;5010625;28;21054;-79
2022/06/29 07:13:47;;;;;;;4.97;4.60;;;27.20;66.50;;;;;;5011804;28;20491;-79
2022/06/29 07:16:15;;;;;;;5.87;4.57;;;27.20;66.40;;;;;;5013689;28;20478;-78
2022/06/29 07:18:44;;;;;;;8.83;8.03;;;27.20;66.30;;;;;;5013409;28;20502;-78
2022/06/29 07:21:13;;;;;;;5.90;5.40;;;27.20;66.50;;;;;;5013214;28;20448;-78
2022/06/29 07:23:42;;;;;;;6.00;5.50;;;27.20;66.50;;;;;;5012850;28;20472;-80
2022/06/29 07:26:10;;;;;;;5.47;5.03;;;27.30;66.40;;;;;;5012572;28;20508;-80
2022/06/29 07:28:39;;;;;;;5.53;5.13;;;27.30;66.30;;;;;;5005791;28;20472;-78
2022/06/29 07:31:08;;;;;;;5.63;5.13;;;27.30;66.40;;;;;;5010112;28;20519;-78
2022/06/29 07:33:37;;;;;;;5.23;4.83;;;27.30;66.30;;;;;;5012696;28;20467;-77
2022/06/29 07:36:08;;;;;;;5.30;4.80;;;27.30;66.30;;;;;;5001458;28;20555;-77
2022/06/29 07:38:38;;;;;;;6.10;5.60;;;27.30;66.20;;;;;;5007520;28;21021;-78
2022/06/29 07:41:06;;;;;;;5.90;5.40;;;27.30;66.20;;;;;;5006490;28;20466;-78
2022/06/29 07:43:34;;;;;;;6.10;5.60;;;27.40;66.10;;;;;;5011962;28;20461;-79
2022/06/29 07:46:05;;;;;;;4.80;4.40;;;27.40;66.10;;;;;;5012004;28;21028;-79
2022/06/29 07:48:33;;;;;;;5.60;5.10;;;27.40;66.30;;;;;;5013234;28;20511;-80
2022/06/29 07:51:01;;;;;;;6.50;4.90;;;27.40;65.90;;;;;;5011436;28;20446;-77
2022/06/29 07:53:32;;;;;;;5.27;4.87;;;27.40;66.00;;;;;;5012359;28;20549;-77
2022/06/29 07:56:04;;;;;;;5.67;5.20;;;27.40;65.90;;;;;;5012650;28;20489;-81
2022/06/29 07:58:32;;;;;;;5.10;4.70;;;27.40;65.90;;;;;;5000176;28;20479;-78
2022/06/29 08:01:00;;;;;;;4.87;4.47;;;27.50;65.90;;;;;;5007317;28;20865;-79
2022/06/29 08:03:28;;;;;;;7.83;5.30;;;27.50;65.90;;;;;;5012524;28;20472;-78
2022/06/29 08:05:57;;;;;;;6.03;5.53;;;27.50;65.90;;;;;;5010816;28;20926;-78
2022/06/29 08:08:25;;;;;;;5.13;4.73;;;27.50;65.90;;;;;;5011852;28;20499;-78
2022/06/29 08:10:53;;;;;;;5.63;4.83;;;27.60;65.90;;;;;;5010242;28;20768;-78
2022/06/29 08:13:23;;;;;;;6.10;5.00;;;27.60;66.00;;;;;;5012144;28;20489;-78
2022/06/29 08:15:51;;;;;;;5.17;4.77;;;27.60;65.90;;;;;;5011957;28;20964;-78
2022/06/29 08:18:20;;;;;;;5.90;5.40;;;27.60;65.70;;;;;;5012401;28;20501;-79
2022/06/29 08:20:48;;;;;;;5.67;5.17;;;27.60;65.70;;;;;;5010934;28;20460;-78
2022/06/29 08:23:16;;;;;;;5.73;4.67;;;27.60;65.70;;;;;;5010342;28;20916;-79
2022/06/29 08:25:44;;;;;;;5.33;4.87;;;27.60;65.60;;;;;;5005863;28;20445;-77
2022/06/29 08:28:34;;;;;;;5.70;5.20;;;27.70;65.50;;;;;;5011725;28;20473;-78
2022/06/29 08:31:06;;;;;;;5.60;4.23;;;27.70;65.60;;;;;;5011978;28;20998;-79
2022/06/29 08:33:34;;;;;;;5.50;5.00;;;27.70;65.50;;;;;;5011681;28;20468;-80
2022/06/29 08:36:05;;;;;;;4.80;4.40;;;27.70;65.60;;;;;;5012343;28;20934;-81
2022/06/29 08:38:33;;;;;;;5.77;5.27;;;27.70;65.50;;;;;;5011298;28;20486;-79
2022/06/29 08:41:04;;;;;;;6.77;6.27;;;27.70;65.50;;;;;;5011731;28;20485;-77
2022/06/29 08:43:34;;;;;;;5.10;4.70;;;27.70;65.50;;;;;;5004702;28;20817;-79
2022/06/29 08:46:05;;;;;;;5.13;4.40;;;27.80;65.40;;;;;;5012251;28;20510;-79
2022/06/29 08:48:36;;;;;;;5.80;5.30;;;27.80;65.30;;;;;;5011729;28;20580;-78
2022/06/29 08:51:08;;;;;;;6.20;5.60;;;27.80;65.30;;;;;;5011346;28;20448;-78
2022/06/29 08:53:40;;;;;;;6.93;6.00;;;27.80;65.20;;;;;;5011563;28;20445;-77
2022/06/29 08:56:08;;;;;;;6.33;5.10;;;27.90;65.30;;;;;;5007150;28;20450;-78
2022/06/29 08:58:41;;;;;;;5.57;5.07;;;27.90;65.20;;;;;;5007501;28;20481;-78
2022/06/29 09:01:09;;;;;;;5.20;4.77;;;27.90;65.30;;;;;;4999055;28;20462;-77
2022/06/29 09:03:38;;;;;;;5.60;5.10;;;27.90;65.20;;;;;;5009540;28;20469;-77
2022/06/29 09:06:08;;;;;;;5.20;4.80;;;27.90;65.10;;;;;;5007132;28;20447;-77
2022/06/29 09:08:36;;;;;;;5.10;4.67;;;27.90;64.90;;;;;;5010645;28;20533;-78
2022/06/29 09:11:22;;;;;;;5.30;4.90;;;28.00;65.00;;;;;;5010225;28;20492;-78
2022/06/29 09:14:09;;;;;;;11.40;10.30;;;28.00;64.90;;;;;;5002706;28;20474;-80
2022/06/29 09:16:52;;;;;;;10.23;9.33;;;27.90;64.70;;;;;;5013408;28;20604;-79
2022/06/29 09:19:22;;;;;;;8.03;7.40;;;27.80;65.00;;;;;;5017318;28;20472;-79
2022/06/29 09:21:52;;;;;;;7.73;7.17;;;27.60;65.20;;;;;;5016807;28;20456;-79
2022/06/29 09:24:23;;;;;;;8.70;6.20;;;27.60;65.50;;;;;;5013531;28;21010;-79
2022/06/29 09:26:52;;;;;;;7.50;6.90;;;27.50;65.60;;;;;;5015973;28;20480;-78
2022/06/29 09:29:24;;;;;;;6.43;5.72;;;27.40;65.70;;;;;;5012992;28;20462;-78
2022/06/29 09:32:10;;;;;;;7.03;6.33;;;27.40;65.90;;;;;;5012925;28;20201;-80
2022/06/29 09:34:46;;;;;;;7.87;7.27;;;27.30;66.00;;;;;;5012317;28;20458;-79
2022/06/29 09:37:16;;;;;;;6.37;5.87;;;27.30;65.20;;;;;;5014085;28;20459;-78
2022/06/29 09:39:46;;;;;;;6.67;5.93;;;27.10;66.40;;;;;;5009282;28;20477;-80
2022/06/29 09:42:15;;;;;;;7.13;5.47;;;27.20;66.50;;;;;;5006198;28;20458;-79
2022/06/29 09:44:46;;;;;;;5.83;4.80;;;27.20;66.30;;;;;;5009927;28;20445;-79
2022/06/29 09:47:16;;;;;;;6.20;5.57;;;27.30;66.10;;;;;;5018543;28;20470;-80
2022/06/29 09:49:46;;;;;;;7.80;6.10;;;27.40;66.30;;;;;;5009256;28;20541;-78
2022/06/29 09:52:15;;;;;;;6.33;5.73;;;27.50;65.60;;;;;;5004874;28;20514;-83
2022/06/29 09:54:48;;;;;;;7.33;6.40;;;27.40;66.20;;;;;;5006645;28;20581;-79
2022/06/29 09:57:20;;;;;;;6.13;5.50;;;27.30;65.80;;;;;;5010976;28;20470;-79
2022/06/29 10:02:40;;;;;;;6.90;5.87;;;27.60;65.90;;;;;;5006913;28;20949;-79
2022/06/29 10:05:11;;;;;;;7.77;6.83;;;27.60;65.70;;;;;;5005469;28;20550;-78
2022/06/29 10:07:41;;;;;;;8.37;6.90;;;27.70;64.90;;;;;;5009582;28;20889;-78
2022/06/29 10:10:11;;;;;;;7.17;6.57;;;27.70;65.00;;;;;;5008413;28;20471;-78
2022/06/29 10:16:08;;;;;;;6.07;5.47;;;27.70;65.10;;;;;;5008442;28;20597;-78
2022/06/29 10:18:54;;;;;;;6.20;5.70;;;27.60;65.50;;;;;;5008277;28;20466;-79
2022/06/29 10:21:27;;;;;;;6.70;6.10;;;27.60;65.50;;;;;;5007008;28;20503;-79
2022/06/29 10:23:57;;;;;;;7.93;7.07;;;27.70;65.60;;;;;;5008416;28;20503;-79
2022/06/29 10:26:50;;;;;;;8.63;7.83;;;27.70;65.80;;;;;;5009821;28;20850;-79
2022/06/29 10:29:29;;;;;;;6.73;6.13;;;27.80;65.90;;;;;;5003936;28;20476;-79
2022/06/29 10:32:17;;;;;;;10.23;7.67;;;27.80;66.70;;;;;;5010358;28;20461;-80
2022/06/29 10:37:32;;;;;;;9.43;7.17;;;27.90;65.90;;;;;;5017815;28;20491;-79
2022/06/29 10:40:08;;;;;;;7.47;6.77;;;27.90;65.80;;;;;;5007265;28;20481;-80
2022/06/29 10:45:37;;;;;;;7.57;6.73;;;28.00;65.80;;;;;;5014876;28;20450;-80
2022/06/29 10:48:17;;;;;;;9.57;6.87;;;28.10;65.70;;;;;;5010678;28;20490;-79
2022/06/29 10:50:46;;;;;;;7.50;6.90;;;28.20;65.40;;;;;;5009700;28;20512;-80
2022/06/29 10:53:17;;;;;;;6.27;5.63;;;28.20;65.00;;;;;;5005663;28;20470;-79
2022/06/29 10:55:47;;;;;;;7.20;6.20;;;28.20;65.00;;;;;;4999787;28;20487;-80
2022/06/29 10:58:17;;;;;;;6.70;6.10;;;28.20;65.00;;;;;;5006486;28;20858;-79
2022/06/29 11:00:46;;;;;;;7.07;6.40;;;28.20;65.00;;;;;;5003220;28;21064;-79
2022/06/29 11:03:18;;;;;;;7.60;6.17;;;28.10;65.20;;;;;;5012518;28;20521;-79
2022/06/29 11:15:39;;;;;;;6.57;6.03;;;28.10;65.40;;;;;;5012983;28;20564;-82
2022/06/29 11:16:58;;;;;;;10.60;6.40;;;28.00;65.50;;;;;;5013580;28;21081;-81
2022/06/29 11:19:31;;;;;;;9.00;6.77;;;28.10;65.40;;;;;;5011283;28;20564;-79
2022/06/29 11:22:15;;;;;;;6.43;5.57;;;28.10;65.50;;;;;;5008365;28;20467;-82
2022/06/29 11:24:52;;;;;;;6.57;5.93;;;28.10;65.70;;;;;;5012328;28;20458;-81
2022/06/29 11:27:39;;;;;;;6.70;6.10;;;28.20;65.70;;;;;;5010848;28;20494;-81
2022/06/29 11:30:09;;;;;;;7.03;5.60;;;28.30;65.40;;;;;;5009390;28;20510;-80
2022/06/29 11:32:41;;;;;;;6.10;5.60;;;28.30;65.40;;;;;;5010238;28;20516;-81
2022/06/29 11:35:12;;;;;;;6.80;6.03;;;28.20;65.40;;;;;;5012986;28;20450;-81
2022/06/29 11:37:51;;;;;;;8.27;6.77;;;28.20;64.80;;;;;;5013850;28;20505;-80
2022/06/29 11:40:20;;;;;;;7.13;6.00;;;28.20;64.70;;;;;;5010828;28;20472;-80
2022/06/29 11:43:07;;;;;;;7.40;6.67;;;28.20;65.20;;;;;;5012812;28;20493;-81
2022/06/29 11:45:39;;;;;;;9.73;5.40;;;28.20;65.10;;;;;;5011112;28;20482;-82
2022/06/29 11:48:13;;;;;;;6.33;5.83;;;28.30;65.40;;;;;;5010130;28;20530;-82
2022/06/29 11:50:48;;;;;;;6.03;5.53;;;28.20;65.40;;;;;;5013182;28;21129;-80
2022/06/29 11:53:39;;;;;;;5.70;5.30;;;28.20;65.50;;;;;;5009715;28;20487;-81
2022/06/29 11:56:10;;;;;;;4.90;4.50;;;28.20;65.50;;;;;;5013201;28;20505;-82
2022/06/29 11:58:40;;;;;;;5.73;5.30;;;28.30;65.20;;;;;;5014084;28;20442;-81
2022/06/29 12:01:10;;;;;;;5.83;5.37;;;28.30;65.40;;;;;;5011954;28;20482;-82
2022/06/29 12:03:39;;;;;;;6.80;6.20;;;28.30;65.30;;;;;;5009773;28;20467;-81
2022/06/29 12:06:09;;;;;;;6.53;5.83;;;28.40;65.40;;;;;;5012122;28;20553;-80
2022/06/29 12:08:37;;;;;;;6.37;5.80;;;28.40;65.20;;;;;;5013552;28;20579;-83
2022/06/29 12:11:05;;;;;;;5.80;4.70;;;28.50;65.20;;;;;;5007825;28;20557;-80
2022/06/29 12:13:34;;;;;;;8.53;7.73;;;28.60;65.10;;;;;;5013999;28;20480;-83
2022/06/29 12:16:04;;;;;;;8.10;6.07;;;28.70;64.00;;;;;;5011956;28;20586;-81
2022/06/29 12:18:33;;;;;;;5.60;4.83;;;28.80;64.30;;;;;;5014923;28;20981;-81
2022/06/29 12:21:01;;;;;;;6.13;5.63;;;28.90;64.40;;;;;;5014464;28;20538;-80
2022/06/29 12:23:33;;;;;;;6.37;5.77;;;28.80;64.50;;;;;;5015331;28;20526;-82
2022/06/29 12:26:06;;;;;;;5.77;5.23;;;28.80;64.30;;;;;;5001607;28;20532;-80
2022/06/29 12:28:34;;;;;;;5.93;5.53;;;28.80;64.50;;;;;;5010127;28;20491;-83
2022/06/29 12:31:05;;;;;;;6.83;5.37;;;28.80;64.30;;;;;;5012256;28;20515;-83
2022/06/29 12:33:33;;;;;;;6.43;5.93;;;28.90;64.20;;;;;;5015966;28;20486;-82
2022/06/29 12:36:01;;;;;;;7.00;6.50;;;28.90;64.60;;;;;;5013979;28;20448;-82
2022/06/29 12:38:33;;;;;;;6.83;5.67;;;28.90;64.40;;;;;;5043477;28;20494;-78
2022/06/29 12:41:02;;;;;;;5.43;4.93;;;28.90;64.50;;;;;;5010364;28;20964;-81
2022/06/29 12:43:32;;;;;;;7.70;6.33;;;28.80;64.50;;;;;;5012166;28;20499;-81
2022/06/29 12:46:01;;;;;;;6.07;5.57;;;28.90;64.50;;;;;;5010553;28;20459;-81
2022/06/29 12:48:31;;;;;;;6.67;6.17;;;29.00;64.40;;;;;;5012795;28;20487;-80
2022/06/29 12:51:00;;;;;;;6.27;5.77;;;29.10;63.60;;;;;;5008725;28;20862;-83
2022/06/29 12:53:28;;;;;;;6.80;6.20;;;29.20;63.60;;;;;;5011909;28;20891;-80
2022/06/29 12:55:59;;;;;;;5.70;5.20;;;29.10;63.60;;;;;;5009035;28;20526;-81
2022/06/29 12:58:27;;;;;;;6.30;5.80;;;29.00;64.00;;;;;;5010365;28;20489;-80
2022/06/29 13:00:56;;;;;;;5.77;5.37;;;28.80;64.10;;;;;;5005498;28;20522;-80
2022/06/29 13:03:24;;;;;;;6.40;5.90;;;28.70;64.20;;;;;;5007287;28;20547;-78
2022/06/29 13:05:52;;;;;;;6.90;6.30;;;28.90;63.80;;;;;;5006029;28;21138;-78
2022/06/29 13:08:21;;;;;;;6.87;5.67;;;28.90;63.70;;;;;;5011128;28;20911;-80
2022/06/29 13:10:49;;;;;;;6.10;5.60;;;29.00;63.70;;;;;;5009097;28;20476;-81
2022/06/29 13:13:18;;;;;;;8.57;7.77;;;29.00;63.60;;;;;;5011422;28;20446;-80
2022/06/29 13:15:47;;;;;;;6.80;6.23;;;29.20;61.80;;;;;;5011410;28;21729;-80
2022/06/29 13:18:15;;;;;;;10.03;8.00;;;29.00;63.20;;;;;;5010047;28;20455;-80
2022/06/29 13:20:44;;;;;;;6.93;6.37;;;28.90;63.50;;;;;;5011041;28;20639;-79
2022/06/29 13:23:14;;;;;;;6.20;5.70;;;28.90;63.60;;;;;;5008977;28;20448;-82